createdAt,value
2022-08-04T00:02:13.516Z,24.50
2022-08-04T00:04:45.314Z,24.50
2022-08-04T00:07:42.517Z,24.50
2022-08-04T00:10:10.095Z,24.50
2022-08-04T00:12:42.281Z,24.50
2022-08-04T00:15:15.059Z,24.40
2022-08-04T00:17:54.277Z,24.40
2022-08-04T00:20:23.226Z,24.40
2022-08-04T00:22:53.009Z,24.40
2022-08-04T00:25:20.044Z,24.40
2022-08-04T00:27:47.657Z,24.10
2022-08-04T00:30:14.682Z,24.10
2022-08-04T00:32:42.880Z,24.00
2022-08-04T00:35:13.175Z,24.00
2022-08-04T00:37:40.884Z,23.90
2022-08-04T00:40:20.235Z,23.90
2022-08-04T00:43:02.909Z,23.90
2022-08-04T00:46:16.343Z,23.90
2022-08-04T00:48:47.286Z,24.00
2022-08-04T00:51:32.895Z,23.90
2022-08-04T00:54:11.933Z,23.90
2022-08-04T00:57:02.876Z,23.90
2022-08-04T00:59:42.783Z,23.90
2022-08-04T01:02:29.664Z,23.80
2022-08-04T01:05:15.148Z,23.80
2022-08-04T01:08:07.164Z,23.80
2022-08-04T01:11:15.432Z,23.90
2022-08-04T01:14:05.241Z,23.80
2022-08-04T01:16:39.863Z,23.80
2022-08-04T01:19:34.922Z,23.80
2022-08-04T01:22:07.606Z,23.70
2022-08-04T01:24:51.610Z,23.70
2022-08-04T01:27:47.655Z,23.50
2022-08-04T01:30:14.888Z,23.50
2022-08-04T01:32:53.389Z,23.40
2022-08-04T01:35:47.709Z,23.40
2022-08-04T01:38:24.127Z,23.40
2022-08-04T01:40:57.701Z,23.50
2022-08-04T01:43:27.646Z,23.40
2022-08-04T01:45:58.930Z,23.40
2022-08-04T01:48:27.515Z,23.30
2022-08-04T01:50:57.794Z,23.40
2022-08-04T01:53:31.397Z,23.40
2022-08-04T01:55:58.683Z,23.40
2022-08-04T01:58:30.830Z,23.40
2022-08-04T02:01:10.495Z,23.30
2022-08-04T02:04:20.592Z,23.40
2022-08-04T02:06:59.887Z,23.20
2022-08-04T02:09:54.530Z,23.20
2022-08-04T02:12:27.175Z,23.20
2022-08-04T02:15:03.011Z,23.20
2022-08-04T02:17:45.308Z,23.10
2022-08-04T02:20:39.401Z,23.10
2022-08-04T02:23:09.901Z,23.10
2022-08-04T02:26:00.713Z,23.10
2022-08-04T02:28:35.205Z,23.00
2022-08-04T02:31:08.137Z,22.90
2022-08-04T02:33:38.506Z,22.90
2022-08-04T02:36:10.063Z,22.80
2022-08-04T02:38:58.923Z,22.90
2022-08-04T02:41:28.115Z,22.50
2022-08-04T02:44:03.141Z,22.70
2022-08-04T02:46:31.590Z,22.70
2022-08-04T02:49:04.168Z,22.70
2022-08-04T02:51:36.200Z,22.70
2022-08-04T02:54:04.941Z,22.60
2022-08-04T02:56:34.892Z,22.60
2022-08-04T02:59:14.888Z,22.30
2022-08-04T03:01:57.917Z,21.80
2022-08-04T03:05:02.542Z,22.00
2022-08-04T03:07:41.416Z,22.30
2022-08-04T03:10:21.465Z,22.50
2022-08-04T03:13:11.833Z,22.50
2022-08-04T03:16:02.487Z,22.70
2022-08-04T03:19:34.145Z,22.80
2022-08-04T03:22:28.320Z,22.70
2022-08-04T03:25:15.674Z,22.60
2022-08-04T03:28:06.763Z,22.30
2022-08-04T03:30:49.098Z,22.30
2022-08-04T03:33:41.326Z,21.70
2022-08-04T03:36:34.644Z,21.80
2022-08-04T03:39:34.707Z,22.10
2022-08-04T03:42:34.399Z,22.20
2022-08-04T03:45:25.933Z,22.30
2022-08-04T03:48:13.758Z,22.30
2022-08-04T03:51:09.514Z,22.40
2022-08-04T03:54:28.888Z,22.30
2022-08-04T03:57:25.952Z,22.20
2022-08-04T04:00:02.274Z,22.20
2022-08-04T04:02:43.336Z,22.00
2022-08-04T04:05:29.883Z,22.10
2022-08-04T04:08:28.015Z,22.00
2022-08-04T04:11:18.332Z,21.90
2022-08-04T04:13:45.332Z,21.90
2022-08-04T04:16:22.531Z,21.80
2022-08-04T04:18:57.003Z,21.80
2022-08-04T04:22:03.306Z,21.90
2022-08-04T04:25:07.006Z,21.80
2022-08-04T04:27:48.661Z,22.00
2022-08-04T04:30:42.697Z,21.90
2022-08-04T04:33:48.535Z,21.90
2022-08-04T04:36:28.060Z,21.90
2022-08-04T04:39:20.566Z,21.90
2022-08-04T04:42:07.245Z,22.00
2022-08-04T04:44:56.223Z,22.10
2022-08-04T04:48:08.374Z,22.20
2022-08-04T04:50:46.820Z,22.20
2022-08-04T04:53:36.024Z,22.30
2022-08-04T04:56:19.368Z,22.30
2022-08-04T04:58:48.750Z,22.30
2022-08-04T05:01:30.268Z,22.30
2022-08-04T05:04:26.051Z,22.30
2022-08-04T05:07:11.136Z,22.40
2022-08-04T05:09:38.562Z,22.40
2022-08-04T05:14:31.469Z,22.40
2022-08-04T05:15:16.713Z,22.50
2022-08-04T05:17:51.363Z,22.50
2022-08-04T05:20:29.145Z,22.40
2022-08-04T05:23:09.458Z,22.60
2022-08-04T05:25:58.489Z,22.70
2022-08-04T05:28:41.895Z,22.80
2022-08-04T05:31:20.550Z,22.80
2022-08-04T05:34:03.305Z,22.90
2022-08-04T05:36:52.413Z,23.00
2022-08-04T05:39:43.322Z,22.70
2022-08-04T05:42:14.797Z,22.20
2022-08-04T05:44:45.347Z,22.10
2022-08-04T05:47:16.689Z,21.90
2022-08-04T05:50:01.443Z,22.20
2022-08-04T05:52:36.853Z,22.20
2022-08-04T05:55:04.988Z,22.10
2022-08-04T05:57:33.012Z,22.20
2022-08-04T06:00:19.515Z,22.30
2022-08-04T06:02:54.559Z,22.40
2022-08-04T06:05:23.384Z,22.60
2022-08-04T06:08:12.789Z,22.70
2022-08-04T06:10:43.393Z,22.90
2022-08-04T06:13:48.283Z,23.10
2022-08-04T06:16:08.389Z,23.20
2022-08-04T06:20:03.462Z,23.10
2022-08-04T06:21:39.642Z,23.20
2022-08-04T06:24:26.343Z,23.20
2022-08-04T06:26:55.051Z,23.20
2022-08-04T06:29:41.317Z,23.10
2022-08-04T06:32:35.465Z,23.20
2022-08-04T06:35:07.790Z,23.30
2022-08-04T06:37:42.562Z,23.30
2022-08-04T06:40:31.650Z,23.30
2022-08-04T06:43:14.634Z,23.40
2022-08-04T06:45:44.199Z,23.50
2022-08-04T06:48:18.789Z,23.60
2022-08-04T06:51:27.839Z,23.80
2022-08-04T06:53:36.747Z,23.90
2022-08-04T06:56:04.506Z,24.00
2022-08-04T06:58:34.070Z,24.10
2022-08-04T07:01:06.745Z,24.20
2022-08-04T07:03:34.199Z,24.10
2022-08-04T07:06:06.047Z,24.10
2022-08-04T07:08:41.290Z,24.20
2022-08-04T07:11:09.251Z,24.10
2022-08-04T07:13:38.285Z,24.10
2022-08-04T07:16:16.083Z,24.10
2022-08-04T07:18:46.093Z,24.30
2022-08-04T07:21:23.489Z,24.20
2022-08-04T07:23:51.515Z,24.30
2022-08-04T07:26:26.846Z,24.50
2022-08-04T07:28:53.766Z,24.60
2022-08-04T07:31:33.142Z,24.70
2022-08-04T07:34:20.657Z,24.80
2022-08-04T07:36:51.284Z,25.00
2022-08-04T07:39:27.620Z,25.00
2022-08-04T07:42:01.588Z,25.10
2022-08-04T07:44:31.269Z,25.30
2022-08-04T07:46:58.913Z,25.70
2022-08-04T07:49:52.185Z,25.70
2022-08-04T07:52:16.944Z,25.90
2022-08-04T07:54:44.986Z,25.50
2022-08-04T07:57:19.233Z,25.60
2022-08-04T07:59:50.395Z,25.50
2022-08-04T08:02:20.605Z,25.40
2022-08-04T08:04:48.383Z,25.60
2022-08-04T08:07:15.557Z,25.50
2022-08-04T08:09:42.478Z,25.60
2022-08-04T08:12:37.485Z,25.90
2022-08-04T08:14:57.109Z,26.20
2022-08-04T08:17:24.172Z,26.40
2022-08-04T08:19:51.407Z,26.70
2022-08-04T08:22:18.264Z,26.60
2022-08-04T08:24:45.194Z,26.40
2022-08-04T08:27:12.072Z,26.70
2022-08-04T08:29:40.269Z,26.60
2022-08-04T08:32:10.014Z,26.70
2022-08-04T08:34:38.754Z,26.70
2022-08-04T08:37:53.063Z,27.10
2022-08-04T08:40:41.069Z,27.00
2022-08-04T08:44:05.057Z,27.00
2022-08-04T08:46:48.594Z,26.90
2022-08-04T08:50:03.143Z,27.00
2022-08-04T08:53:01.261Z,27.20
2022-08-04T08:55:57.026Z,27.30
2022-08-04T08:58:35.679Z,27.40
2022-08-04T09:01:27.318Z,28.00
2022-08-04T09:04:35.441Z,27.90
2022-08-04T09:07:39.401Z,27.70
2022-08-04T09:10:19.078Z,27.30
2022-08-04T09:12:52.888Z,27.30
2022-08-04T09:15:28.694Z,27.20
2022-08-04T09:18:23.958Z,27.30
2022-08-04T09:21:04.287Z,27.30
2022-08-04T09:23:54.879Z,27.20
2022-08-04T09:26:31.464Z,27.10
2022-08-04T09:29:08.921Z,26.90
2022-08-04T09:32:07.189Z,27.00
2022-08-04T09:35:15.690Z,26.90
2022-08-04T09:37:46.741Z,26.80
2022-08-04T09:40:57.079Z,26.60
2022-08-04T09:43:59.508Z,26.70
2022-08-04T09:46:47.549Z,26.50
2022-08-04T09:49:19.590Z,26.10
2022-08-04T09:51:57.613Z,26.20
2022-08-04T09:54:38.005Z,26.30
2022-08-04T09:57:14.998Z,26.40
2022-08-04T10:00:05.953Z,26.40
2022-08-04T10:02:40.860Z,25.90
2022-08-04T10:05:14.291Z,25.90
2022-08-04T10:08:15.176Z,25.80
2022-08-04T10:11:28.166Z,25.80
2022-08-04T10:14:05.822Z,25.50
2022-08-04T10:16:58.760Z,25.30
2022-08-04T10:19:32.540Z,25.10
2022-08-04T10:22:28.931Z,25.10
2022-08-04T10:25:05.025Z,25.00
2022-08-04T10:27:57.542Z,25.00
2022-08-04T10:30:26.117Z,24.80
2022-08-04T10:33:19.635Z,24.50
2022-08-04T10:35:53.894Z,24.50
2022-08-04T10:38:42.442Z,24.50
2022-08-04T10:41:40.260Z,24.50
2022-08-04T10:44:44.121Z,24.50
2022-08-04T10:47:22.299Z,24.20
2022-08-04T10:49:56.005Z,24.40
2022-08-04T10:52:38.283Z,24.60
2022-08-04T10:55:21.621Z,24.70
2022-08-04T10:57:55.890Z,24.50
2022-08-04T11:00:25.780Z,24.50
2022-08-04T11:03:23.532Z,24.50
2022-08-04T11:06:04.777Z,24.60
2022-08-04T11:08:34.738Z,24.70
2022-08-04T11:11:12.896Z,24.60
2022-08-04T11:14:10.541Z,24.70
2022-08-04T11:17:07.974Z,24.80
2022-08-04T11:19:44.892Z,24.70
2022-08-04T11:22:26.247Z,24.90
2022-08-04T11:24:56.743Z,24.70
2022-08-04T11:27:36.157Z,24.60
2022-08-04T11:30:09.151Z,24.50
2022-08-04T11:33:06.969Z,24.50
2022-08-04T11:35:58.919Z,24.60
2022-08-04T11:38:51.962Z,24.50
2022-08-04T11:41:25.129Z,24.40
2022-08-04T11:44:03.182Z,24.50
2022-08-04T11:46:41.008Z,25.20
2022-08-04T11:49:24.709Z,25.30
2022-08-04T11:51:52.467Z,25.80
2022-08-04T11:54:20.501Z,25.50
2022-08-04T11:56:47.477Z,25.30
2022-08-04T11:59:14.888Z,25.00
2022-08-04T12:01:47.413Z,25.10
2022-08-04T12:04:26.941Z,25.50
2022-08-04T12:07:15.039Z,25.50
2022-08-04T12:09:56.394Z,25.70
2022-08-04T12:12:39.137Z,25.40
2022-08-04T12:15:27.693Z,25.50
2022-08-04T12:18:09.197Z,25.50
2022-08-04T12:20:43.355Z,25.40
2022-08-04T12:23:27.037Z,26.20
2022-08-04T12:26:00.379Z,27.60
2022-08-04T12:28:52.506Z,27.40
2022-08-04T12:31:57.302Z,27.30
2022-08-04T12:34:33.816Z,27.80
2022-08-04T12:37:07.383Z,28.00
2022-08-04T12:40:29.328Z,28.20
2022-08-04T12:42:36.007Z,28.00
2022-08-04T12:45:10.728Z,28.30
2022-08-04T12:47:39.328Z,28.30
2022-08-04T12:50:08.012Z,28.40
2022-08-04T12:53:00.940Z,28.70
2022-08-04T12:55:30.704Z,29.20
2022-08-04T12:57:58.575Z,28.80
2022-08-04T13:00:47.738Z,29.90
2022-08-04T13:03:16.634Z,29.50
2022-08-04T13:05:45.006Z,29.90
2022-08-04T13:08:13.356Z,29.50
2022-08-04T13:10:42.826Z,29.50
2022-08-04T13:13:25.810Z,29.30
2022-08-04T13:15:57.247Z,29.40
2022-08-04T13:18:30.110Z,30.30
2022-08-04T13:21:23.046Z,31.00
2022-08-04T13:24:22.719Z,32.00
2022-08-04T13:27:10.738Z,31.10
2022-08-04T13:29:59.734Z,31.60
2022-08-04T13:32:29.878Z,30.60
2022-08-04T13:35:00.172Z,31.70
2022-08-04T13:37:34.935Z,31.20
2022-08-04T13:40:05.746Z,31.00
2022-08-04T13:42:35.782Z,32.00
2022-08-04T13:45:07.141Z,32.20
2022-08-04T13:47:38.110Z,31.50
2022-08-04T13:50:23.805Z,31.80
2022-08-04T13:52:56.872Z,31.30
2022-08-04T13:55:28.445Z,30.50
2022-08-04T13:58:02.415Z,30.60
2022-08-04T14:00:44.103Z,30.60
2022-08-04T14:03:22.818Z,30.50
2022-08-04T14:06:12.267Z,30.80
2022-08-04T14:09:03.552Z,30.90
2022-08-04T14:12:06.542Z,31.00
2022-08-04T14:14:30.264Z,30.80
2022-08-04T14:17:06.873Z,31.10
2022-08-04T14:20:00.048Z,30.60
2022-08-04T14:22:26.901Z,29.90
2022-08-04T14:25:01.119Z,29.60
2022-08-04T14:27:53.145Z,29.80
2022-08-04T14:30:38.995Z,29.20
2022-08-04T14:34:01.504Z,29.20
2022-08-04T14:36:04.125Z,29.70
2022-08-04T14:38:48.696Z,29.80
2022-08-04T14:41:18.021Z,29.70
2022-08-04T14:43:50.698Z,29.50
2022-08-04T14:46:18.299Z,29.10
2022-08-04T14:49:10.090Z,29.00
2022-08-04T14:51:43.082Z,28.80
2022-08-04T14:54:17.326Z,28.60
2022-08-04T14:56:53.633Z,28.50
2022-08-04T14:59:21.580Z,28.40
2022-08-04T15:02:00.280Z,28.30
2022-08-04T15:04:29.415Z,28.10
2022-08-04T15:06:56.728Z,28.30
2022-08-04T15:09:24.021Z,28.60
2022-08-04T15:11:51.106Z,28.90
2022-08-04T15:14:36.324Z,28.90
2022-08-04T15:17:12.111Z,29.10
2022-08-04T15:19:55.486Z,29.30
2022-08-04T15:22:23.188Z,29.20
2022-08-04T15:24:52.128Z,29.20
2022-08-04T15:27:26.675Z,28.90
2022-08-04T15:30:00.199Z,28.90
2022-08-04T15:32:34.161Z,28.60
2022-08-04T15:35:09.183Z,28.40
2022-08-04T15:37:53.925Z,28.60
2022-08-04T15:40:37.288Z,28.60
2022-08-04T15:43:26.687Z,28.30
2022-08-04T15:46:41.110Z,27.90
2022-08-04T15:48:47.331Z,27.70
2022-08-04T15:51:30.382Z,28.10
2022-08-04T15:54:02.199Z,28.00
2022-08-04T15:56:31.078Z,28.00
2022-08-04T15:58:58.437Z,27.80
2022-08-04T16:01:27.989Z,27.80
2022-08-04T16:03:59.733Z,27.90
2022-08-04T16:06:29.741Z,28.00
2022-08-04T16:09:05.050Z,28.00
2022-08-04T16:11:40.121Z,27.90
2022-08-04T16:14:10.937Z,27.90
2022-08-04T16:16:41.039Z,27.70
2022-08-04T16:19:18.845Z,27.60
2022-08-04T16:21:52.932Z,27.50
2022-08-04T16:24:31.510Z,27.70
2022-08-04T16:27:00.604Z,27.90
2022-08-04T16:29:51.724Z,27.90
2022-08-04T16:32:23.928Z,27.80
2022-08-04T16:35:03.379Z,27.80
2022-08-04T16:37:38.974Z,27.30
2022-08-04T16:40:36.452Z,27.20
2022-08-04T16:43:06.345Z,27.40
2022-08-04T16:45:40.241Z,27.10
2022-08-04T16:48:08.329Z,26.80
2022-08-04T16:51:06.581Z,26.80
2022-08-04T16:54:02.870Z,26.90
2022-08-04T16:56:33.457Z,27.00
2022-08-04T16:59:10.137Z,26.90
2022-08-04T17:01:38.574Z,26.90
2022-08-04T17:04:06.691Z,27.00
2022-08-04T17:06:42.068Z,26.90
2022-08-04T17:09:13.007Z,26.80
2022-08-04T17:11:41.309Z,26.80
2022-08-04T17:14:08.261Z,26.80
2022-08-04T17:16:37.939Z,26.60
2022-08-04T17:19:06.756Z,26.50
2022-08-04T17:21:48.048Z,26.40
2022-08-04T17:24:17.846Z,26.40
2022-08-04T17:26:51.782Z,26.40
2022-08-04T17:29:42.076Z,26.00
2022-08-04T17:32:16.964Z,25.90
2022-08-04T17:34:51.216Z,25.70
2022-08-04T17:37:38.776Z,25.60
2022-08-04T17:40:18.654Z,25.70
2022-08-04T17:44:03.767Z,25.60
2022-08-04T17:46:15.178Z,25.50
2022-08-04T17:49:00.587Z,25.50
2022-08-04T17:52:19.205Z,25.50
2022-08-04T17:55:02.803Z,25.40
2022-08-04T17:57:30.310Z,24.90
2022-08-04T18:00:00.313Z,24.80
2022-08-04T18:02:32.247Z,24.90
2022-08-04T18:05:07.491Z,24.60
2022-08-04T18:08:40.153Z,24.80
2022-08-04T18:10:51.560Z,24.70
2022-08-04T18:13:27.487Z,24.80
2022-08-04T18:16:22.716Z,24.80
2022-08-04T18:19:12.212Z,24.70
2022-08-04T18:21:46.797Z,24.70
2022-08-04T18:24:33.829Z,24.70
2022-08-04T18:27:06.257Z,24.80
2022-08-04T18:29:39.248Z,24.80
2022-08-04T18:32:08.959Z,24.90
2022-08-04T18:34:40.678Z,24.80
2022-08-04T18:37:32.116Z,24.60
2022-08-04T18:40:17.290Z,24.50
2022-08-04T18:42:44.937Z,24.40
2022-08-04T18:45:13.194Z,24.40
2022-08-04T18:47:58.640Z,24.40
2022-08-04T18:51:01.064Z,24.60
2022-08-04T18:53:13.143Z,24.40
2022-08-04T18:55:56.552Z,24.30
2022-08-04T18:58:27.167Z,24.40
2022-08-04T19:00:56.066Z,24.50
2022-08-04T19:03:27.166Z,24.50
2022-08-04T19:05:59.845Z,24.60
2022-08-04T19:08:32.810Z,24.60
2022-08-04T19:11:37.371Z,24.40
2022-08-04T19:13:57.804Z,24.40
2022-08-04T19:16:27.619Z,24.40
2022-08-04T19:18:56.576Z,24.30
2022-08-04T19:21:59.387Z,24.30
2022-08-04T19:24:31.997Z,24.20
2022-08-04T19:26:59.495Z,24.00
2022-08-04T19:29:37.820Z,23.90
2022-08-04T19:32:14.435Z,23.90
2022-08-04T19:34:47.239Z,23.90
2022-08-04T19:37:56.771Z,23.90
2022-08-04T19:40:04.812Z,23.80
2022-08-04T19:42:32.155Z,23.90
2022-08-04T19:44:59.407Z,24.00
2022-08-04T19:48:15.959Z,23.70
2022-08-04T19:50:13.897Z,23.60
2022-08-04T19:52:51.478Z,23.60
2022-08-04T19:55:22.369Z,23.70
2022-08-04T19:57:50.437Z,23.90
2022-08-04T20:00:33.439Z,23.90
2022-08-04T20:03:03.138Z,23.90
2022-08-04T20:05:52.719Z,23.60
2022-08-04T20:08:19.556Z,23.40
2022-08-04T20:10:51.777Z,23.60
2022-08-04T20:13:22.488Z,23.40
2022-08-04T20:15:57.694Z,23.60
2022-08-04T20:21:19.472Z,23.60
2022-08-04T20:23:52.649Z,23.60
2022-08-04T20:26:20.326Z,23.50
2022-08-04T20:28:51.794Z,23.50
2022-08-04T20:31:19.883Z,23.60
2022-08-04T20:33:49.387Z,23.60
2022-08-04T20:36:22.789Z,23.50
2022-08-04T20:38:54.647Z,23.60
2022-08-04T20:41:22.495Z,23.50
2022-08-04T20:43:49.744Z,23.60
2022-08-04T20:49:06.541Z,23.50
2022-08-04T20:51:39.959Z,23.40
2022-08-04T20:54:16.738Z,23.40
2022-08-04T20:56:50.525Z,23.50
2022-08-04T20:59:19.699Z,23.40
2022-08-04T21:01:49.530Z,23.40
2022-08-04T21:04:35.897Z,23.30
2022-08-04T21:07:08.525Z,23.30
2022-08-04T21:09:49.873Z,23.20
2022-08-04T21:12:27.305Z,23.30
2022-08-04T21:14:57.347Z,23.30
2022-08-04T21:17:56.686Z,23.10
2022-08-04T21:20:13.875Z,23.20
2022-08-04T21:22:40.974Z,23.10
2022-08-04T21:25:16.258Z,23.10
2022-08-04T21:27:44.226Z,23.10
2022-08-04T21:30:25.060Z,22.70
2022-08-04T21:32:55.166Z,22.50
2022-08-04T21:35:36.919Z,22.50
2022-08-04T21:38:16.633Z,22.40
2022-08-04T21:41:10.944Z,22.20
2022-08-04T21:43:42.957Z,22.10
2022-08-04T21:46:11.426Z,21.80
2022-08-04T21:48:42.463Z,21.70
2022-08-04T21:51:55.817Z,21.60
2022-08-04T21:54:09.885Z,21.80
2022-08-04T21:56:42.236Z,21.70
2022-08-04T21:59:24.148Z,21.80
2022-08-04T22:01:58.361Z,21.60
2022-08-04T22:04:27.813Z,21.70
2022-08-04T22:06:54.881Z,21.70
2022-08-04T22:09:22.301Z,21.50
2022-08-04T22:11:51.511Z,21.60
2022-08-04T22:14:29.330Z,21.80
2022-08-04T22:17:02.670Z,21.80
2022-08-04T22:19:40.252Z,21.70
2022-08-04T22:22:25.064Z,21.90
2022-08-04T22:24:55.013Z,21.80
2022-08-04T22:27:40.513Z,21.90
2022-08-04T22:30:16.818Z,21.90
2022-08-04T22:32:46.609Z,21.70
2022-08-04T22:35:35.756Z,21.40
2022-08-04T22:38:06.316Z,21.30
2022-08-04T22:40:47.788Z,21.30
2022-08-04T22:43:31.725Z,21.60
2022-08-04T22:46:04.019Z,21.40
2022-08-04T22:48:36.990Z,21.40
2022-08-04T22:51:05.680Z,21.10
2022-08-04T22:53:34.625Z,21.00
2022-08-04T22:56:10.055Z,21.00
2022-08-04T22:58:51.036Z,21.10
2022-08-04T23:01:18.825Z,21.30
2022-08-04T23:03:54.949Z,21.10
2022-08-04T23:06:24.288Z,20.90
2022-08-04T23:08:53.621Z,20.90
2022-08-04T23:11:20.710Z,21.00
2022-08-04T23:13:49.141Z,21.10
2022-08-04T23:16:16.906Z,21.00
2022-08-04T23:18:45.281Z,21.00
2022-08-04T23:21:15.347Z,21.10
2022-08-04T23:23:55.732Z,21.10
2022-08-04T23:26:30.313Z,21.10
2022-08-04T23:28:57.441Z,21.10
2022-08-04T23:31:25.181Z,21.10
2022-08-04T23:34:08.439Z,21.00
2022-08-04T23:36:35.962Z,21.20
2022-08-04T23:39:07.849Z,21.00
2022-08-04T23:41:54.561Z,20.90
2022-08-04T23:44:25.621Z,20.80
2022-08-04T23:47:03.485Z,20.70
2022-08-04T23:49:43.347Z,20.70
2022-08-04T23:52:28.004Z,20.70
2022-08-04T23:54:58.563Z,20.70
2022-08-04T23:58:02.368Z,20.80
